createdAt,value
2019-03-19T00:01:36.601Z,9.90
2019-03-19T00:04:04.030Z,10.40
2019-03-19T00:06:31.498Z,10.40
2019-03-19T00:08:58.918Z,10.27
2019-03-19T00:11:26.341Z,12.00
2019-03-19T00:13:53.803Z,10.00
2019-03-19T00:16:21.201Z,10.97
2019-03-19T00:18:48.668Z,10.03
2019-03-19T00:21:16.144Z,10.43
2019-03-19T00:23:43.614Z,9.13
2019-03-19T00:26:11.066Z,8.50
2019-03-19T00:28:39.144Z,9.13
2019-03-19T00:31:07.186Z,9.23
2019-03-19T00:33:34.599Z,9.13
2019-03-19T00:36:02.036Z,9.07
2019-03-19T00:38:29.559Z,9.87
2019-03-19T00:40:57.025Z,10.60
2019-03-19T00:43:24.490Z,10.50
2019-03-19T00:45:51.939Z,9.13
2019-03-19T00:48:19.413Z,10.13
2019-03-19T00:50:46.839Z,11.27
2019-03-19T00:53:14.318Z,10.20
2019-03-19T00:55:42.068Z,9.67
2019-03-19T00:58:09.506Z,9.87
2019-03-19T01:00:36.949Z,9.83
2019-03-19T01:03:04.452Z,10.23
2019-03-19T01:05:32.004Z,10.77
2019-03-19T01:07:59.479Z,9.90
2019-03-19T01:10:26.986Z,9.37
2019-03-19T01:12:54.432Z,9.90
2019-03-19T01:15:22.570Z,9.27
2019-03-19T01:17:50.852Z,9.43
2019-03-19T01:20:18.603Z,10.17
2019-03-19T01:22:46.741Z,9.50
2019-03-19T01:25:14.220Z,10.03
2019-03-19T01:27:41.776Z,9.80
2019-03-19T01:30:09.754Z,11.10
2019-03-19T01:32:37.202Z,9.87
2019-03-19T01:35:04.972Z,9.40
2019-03-19T01:37:32.402Z,9.50
2019-03-19T01:40:00.298Z,10.03
2019-03-19T01:42:27.698Z,9.60
2019-03-19T01:44:55.155Z,8.63
2019-03-19T01:47:22.636Z,9.77
2019-03-19T01:49:50.089Z,8.93
2019-03-19T01:52:17.556Z,9.27
2019-03-19T01:54:45.046Z,9.13
2019-03-19T01:57:12.479Z,9.70
2019-03-19T01:59:39.964Z,9.57
2019-03-19T02:02:07.466Z,9.87
2019-03-19T02:04:34.923Z,10.33
2019-03-19T02:07:02.394Z,10.17
2019-03-19T02:09:29.928Z,11.67
2019-03-19T02:11:57.370Z,11.87
2019-03-19T02:14:25.287Z,12.43
2019-03-19T02:16:52.715Z,11.77
2019-03-19T02:19:20.576Z,11.80
2019-03-19T02:21:48.231Z,12.93
2019-03-19T02:24:15.817Z,14.00
2019-03-19T02:26:43.323Z,13.37
2019-03-19T02:29:11.021Z,13.40
2019-03-19T02:31:38.504Z,13.77
2019-03-19T02:34:05.989Z,13.33
2019-03-19T02:36:33.446Z,13.87
2019-03-19T02:39:00.904Z,14.07
2019-03-19T02:41:28.332Z,13.70
2019-03-19T02:43:55.763Z,13.20
2019-03-19T02:46:23.476Z,12.93
2019-03-19T02:48:50.934Z,12.83
2019-03-19T02:51:18.359Z,13.60
2019-03-19T02:53:45.809Z,13.93
2019-03-19T02:56:13.293Z,15.50
2019-03-19T02:58:40.718Z,14.03
2019-03-19T03:01:08.191Z,15.97
2019-03-19T03:03:35.754Z,14.73
2019-03-19T03:06:03.216Z,14.03
2019-03-19T03:08:30.681Z,15.10
2019-03-19T03:10:58.112Z,15.33
2019-03-19T03:13:25.595Z,14.73
2019-03-19T03:15:53.051Z,14.53
2019-03-19T03:18:20.517Z,15.07
2019-03-19T03:20:48.012Z,14.87
2019-03-19T03:23:15.825Z,15.17
2019-03-19T03:25:43.288Z,12.40
2019-03-19T03:28:10.703Z,14.80
2019-03-19T03:30:38.149Z,15.00
2019-03-19T03:33:05.603Z,16.47
2019-03-19T03:35:33.068Z,15.23
2019-03-19T03:38:00.571Z,15.70
2019-03-19T03:40:27.953Z,18.50
2019-03-19T03:42:56.183Z,20.07
2019-03-19T03:45:23.648Z,18.73
2019-03-19T03:47:51.096Z,19.20
2019-03-19T03:50:18.576Z,17.37
2019-03-19T03:52:46.016Z,21.20
2019-03-19T03:55:14.281Z,19.23
2019-03-19T03:57:41.807Z,20.50
2019-03-19T04:00:11.483Z,18.10
2019-03-19T04:02:38.907Z,17.80
2019-03-19T04:05:07.203Z,20.53
2019-03-19T04:07:34.628Z,18.07
2019-03-19T04:10:02.219Z,19.20
2019-03-19T04:12:29.665Z,18.40
2019-03-19T04:14:57.128Z,19.00
2019-03-19T04:17:24.620Z,19.20
2019-03-19T04:19:52.093Z,20.10
2019-03-19T04:22:19.579Z,19.43
2019-03-19T04:24:47.063Z,19.60
2019-03-19T04:27:16.221Z,21.87
2019-03-19T04:29:43.853Z,20.47
2019-03-19T04:32:11.335Z,18.97
2019-03-19T04:34:38.851Z,18.83
2019-03-19T04:37:06.311Z,19.73
2019-03-19T04:39:33.791Z,20.03
2019-03-19T04:42:01.267Z,21.83
2019-03-19T04:44:28.729Z,19.50
2019-03-19T04:46:56.141Z,22.30
2019-03-19T04:49:23.668Z,24.03
2019-03-19T04:51:51.134Z,24.13
2019-03-19T04:54:18.637Z,27.23
2019-03-19T04:56:46.083Z,28.63
2019-03-19T04:59:13.530Z,28.57
2019-03-19T05:01:41.007Z,24.93
2019-03-19T05:04:08.479Z,26.37
2019-03-19T05:06:36.018Z,26.63
2019-03-19T05:09:06.023Z,25.73
2019-03-19T05:11:33.486Z,22.87
2019-03-19T05:14:00.923Z,26.03
2019-03-19T05:16:28.398Z,25.07
2019-03-19T05:18:55.860Z,27.43
2019-03-19T05:21:23.278Z,24.50
2019-03-19T05:23:50.726Z,23.60
2019-03-19T05:26:18.237Z,23.20
2019-03-19T05:28:45.668Z,23.40
2019-03-19T05:31:13.161Z,21.47
2019-03-19T05:33:40.575Z,23.70
2019-03-19T05:36:07.998Z,22.67
2019-03-19T05:38:35.886Z,25.30
2019-03-19T05:41:03.304Z,23.67
2019-03-19T05:43:30.717Z,25.60
2019-03-19T05:45:58.155Z,25.67
2019-03-19T05:48:25.572Z,25.70
2019-03-19T05:50:53.005Z,24.03
2019-03-19T05:53:20.429Z,26.67
2019-03-19T05:55:48.054Z,26.10
2019-03-19T05:58:15.471Z,25.23
2019-03-19T06:00:42.931Z,24.17
2019-03-19T06:03:10.389Z,25.63
2019-03-19T06:05:37.833Z,27.70
2019-03-19T06:08:05.293Z,27.33
2019-03-19T06:10:32.747Z,26.67
2019-03-19T06:13:00.182Z,27.03
2019-03-19T06:15:27.950Z,27.37
2019-03-19T06:17:55.407Z,24.23
2019-03-19T06:20:22.851Z,24.80
2019-03-19T06:22:50.267Z,25.07
2019-03-19T06:25:17.742Z,24.40
2019-03-19T06:27:45.187Z,23.83
2019-03-19T06:30:14.140Z,24.43
2019-03-19T06:32:41.690Z,26.57
2019-03-19T06:35:09.700Z,29.77
2019-03-19T06:37:37.120Z,32.37
2019-03-19T06:40:04.600Z,33.23
2019-03-19T06:42:32.034Z,33.60
2019-03-19T06:44:59.438Z,34.97
2019-03-19T06:47:26.885Z,34.13
2019-03-19T06:49:54.302Z,34.80
2019-03-19T06:52:21.706Z,35.13
2019-03-19T06:54:49.170Z,30.77
2019-03-19T06:57:16.605Z,25.43
2019-03-19T06:59:44.133Z,25.30
2019-03-19T07:02:11.553Z,25.80
2019-03-19T07:04:38.998Z,27.37
2019-03-19T07:07:06.453Z,26.93
2019-03-19T07:09:33.902Z,28.17
2019-03-19T07:12:01.845Z,26.17
2019-03-19T07:14:29.215Z,25.77
2019-03-19T07:16:57.079Z,24.43
2019-03-19T07:19:24.551Z,21.27
2019-03-19T07:21:52.015Z,26.07
2019-03-19T07:24:19.455Z,27.53
2019-03-19T07:26:46.881Z,28.13
2019-03-19T07:29:14.302Z,28.03
2019-03-19T07:31:41.751Z,27.60
2019-03-19T07:34:09.162Z,28.87
2019-03-19T07:36:36.588Z,25.03
2019-03-19T07:39:06.927Z,28.17
2019-03-19T07:41:34.336Z,23.97
2019-03-19T07:44:01.775Z,22.63
2019-03-19T07:46:29.485Z,23.27
2019-03-19T07:48:56.927Z,25.40
2019-03-19T07:51:24.367Z,25.67
2019-03-19T07:53:51.847Z,28.57
2019-03-19T07:56:19.262Z,29.77
2019-03-19T07:58:47.004Z,31.57
2019-03-19T08:01:14.436Z,34.97
2019-03-19T08:03:41.908Z,32.57
2019-03-19T08:06:09.304Z,32.43
2019-03-19T08:08:36.694Z,30.03
2019-03-19T08:11:04.114Z,27.87
2019-03-19T08:13:31.574Z,25.60
2019-03-19T08:15:59.006Z,26.80
2019-03-19T08:18:26.424Z,26.30
2019-03-19T08:20:53.937Z,22.97
2019-03-19T08:23:21.354Z,22.17
2019-03-19T08:25:48.798Z,22.10
2019-03-19T08:28:16.240Z,20.97
2019-03-19T08:30:43.706Z,19.43
2019-03-19T08:33:11.136Z,18.67
2019-03-19T08:35:38.646Z,17.50
2019-03-19T08:38:06.047Z,18.10
2019-03-19T08:40:33.466Z,17.40
2019-03-19T08:43:01.184Z,16.50
2019-03-19T08:45:28.632Z,17.90
2019-03-19T08:47:56.048Z,16.03
2019-03-19T08:50:23.494Z,13.63
2019-03-19T08:52:51.159Z,11.60
2019-03-19T08:55:18.760Z,10.73
2019-03-19T08:57:46.608Z,10.23
2019-03-19T09:00:15.914Z,7.87
2019-03-19T09:02:44.049Z,8.63
2019-03-19T09:05:11.456Z,9.23
2019-03-19T09:07:38.909Z,9.50
2019-03-19T09:10:08.709Z,8.73
2019-03-19T09:12:36.121Z,9.03
2019-03-19T09:15:04.212Z,8.73
2019-03-19T09:17:31.622Z,9.05
2019-03-19T09:19:59.072Z,8.68
2019-03-19T09:22:29.841Z,8.95
2019-03-19T09:24:55.710Z,8.20
2019-03-19T09:27:23.170Z,8.35
2019-03-19T09:29:50.595Z,8.10
2019-03-19T09:32:18.524Z,8.15
2019-03-19T09:34:45.957Z,8.60
2019-03-19T09:37:13.391Z,7.70
2019-03-19T09:39:40.834Z,7.20
2019-03-19T09:42:08.234Z,6.00
2019-03-19T09:44:35.750Z,5.75
2019-03-19T09:47:03.254Z,5.10
2019-03-19T09:49:30.964Z,4.55
2019-03-19T09:51:58.370Z,4.42
2019-03-19T09:54:25.786Z,4.20
2019-03-19T09:56:53.286Z,3.25
2019-03-19T09:59:27.032Z,3.10
2019-03-19T10:01:49.886Z,3.17
2019-03-19T10:04:17.323Z,2.12
2019-03-19T10:06:44.736Z,2.90
2019-03-19T10:09:12.185Z,2.87
2019-03-19T10:11:39.584Z,3.75
2019-03-19T10:14:07.033Z,2.67
2019-03-19T10:16:34.477Z,2.40
2019-03-19T10:19:01.889Z,2.65
2019-03-19T10:21:29.320Z,1.95
2019-03-19T10:23:56.739Z,1.90
2019-03-19T10:26:24.161Z,1.95
2019-03-19T10:28:51.582Z,1.82
2019-03-19T10:31:19.063Z,1.80
2019-03-19T10:33:46.504Z,1.80
2019-03-19T10:36:13.976Z,1.70
2019-03-19T10:38:41.390Z,1.72
2019-03-19T10:41:08.863Z,1.22
2019-03-19T10:43:36.302Z,1.80
2019-03-19T10:46:03.730Z,1.80
2019-03-19T10:48:31.149Z,1.50
2019-03-19T10:50:58.651Z,2.45
2019-03-19T10:53:26.138Z,1.80
2019-03-19T10:55:53.538Z,2.33
2019-03-19T10:58:20.976Z,1.45
2019-03-19T11:00:48.526Z,1.98
2019-03-19T11:03:15.935Z,1.70
2019-03-19T11:05:43.348Z,1.20
2019-03-19T11:08:10.799Z,1.45
2019-03-19T11:10:38.220Z,1.25
2019-03-19T11:13:05.649Z,1.15
2019-03-19T11:15:33.074Z,1.82
2019-03-19T11:18:01.436Z,1.42
2019-03-19T11:20:28.840Z,1.80
2019-03-19T11:22:56.239Z,2.30
2019-03-19T11:25:23.871Z,1.20
2019-03-19T11:27:51.352Z,1.50
2019-03-19T11:30:20.167Z,1.50
2019-03-19T11:32:47.625Z,1.22
2019-03-19T11:35:15.431Z,1.30
2019-03-19T11:37:42.865Z,2.00
2019-03-19T11:40:11.110Z,1.52
2019-03-19T11:42:38.842Z,1.75
2019-03-19T11:45:07.060Z,1.62
2019-03-19T11:47:34.447Z,1.70
2019-03-19T11:50:01.900Z,1.70
2019-03-19T11:52:29.323Z,1.75
2019-03-19T11:54:56.754Z,1.72
2019-03-19T11:57:24.170Z,1.72
2019-03-19T11:59:51.575Z,1.95
2019-03-19T12:02:25.868Z,1.98
2019-03-19T12:04:48.321Z,2.08
2019-03-19T12:07:15.721Z,1.82
2019-03-19T12:09:43.163Z,1.70
2019-03-19T12:12:11.699Z,2.08
2019-03-19T12:14:39.253Z,2.10
2019-03-19T12:17:06.700Z,1.60
2019-03-19T12:19:34.160Z,1.75
2019-03-19T12:22:01.547Z,1.90
2019-03-19T12:24:28.962Z,1.47
2019-03-19T12:26:56.682Z,1.80
2019-03-19T12:29:24.312Z,1.22
2019-03-19T12:31:51.742Z,1.67
2019-03-19T12:34:19.146Z,1.75
2019-03-19T12:36:46.587Z,1.65
2019-03-19T12:39:13.992Z,1.67
2019-03-19T12:41:41.433Z,1.72
2019-03-19T12:44:08.962Z,1.85
2019-03-19T12:46:36.748Z,2.08
2019-03-19T12:49:04.415Z,2.15
2019-03-19T12:51:31.833Z,1.45
2019-03-19T12:53:59.346Z,1.95
2019-03-19T12:56:26.845Z,1.50
2019-03-19T12:58:54.388Z,1.87
2019-03-19T13:01:21.986Z,1.65
2019-03-19T13:03:49.528Z,1.72
2019-03-19T13:06:17.470Z,1.67
2019-03-19T13:08:44.970Z,2.17
2019-03-19T13:11:12.868Z,1.57
2019-03-19T13:13:41.056Z,2.10
2019-03-19T13:16:08.634Z,1.60
2019-03-19T13:18:36.073Z,1.80
2019-03-19T13:21:03.626Z,1.90
2019-03-19T13:23:31.072Z,2.02
2019-03-19T13:25:58.505Z,1.75
2019-03-19T13:28:25.992Z,1.90
2019-03-19T13:30:53.448Z,1.70
2019-03-19T13:33:20.909Z,1.82
2019-03-19T13:35:48.384Z,1.90
2019-03-19T13:38:15.821Z,1.65
2019-03-19T13:40:43.253Z,1.85
2019-03-19T13:43:10.808Z,1.80
2019-03-19T13:45:38.218Z,1.67
2019-03-19T13:48:05.645Z,1.60
2019-03-19T13:50:33.899Z,1.62
2019-03-19T13:53:01.462Z,1.67
2019-03-19T13:55:28.876Z,1.85
2019-03-19T13:57:56.317Z,1.70
2019-03-19T14:00:24.200Z,1.80
2019-03-19T14:02:51.671Z,2.02
2019-03-19T14:05:19.129Z,2.42
2019-03-19T14:07:46.663Z,1.80
2019-03-19T14:10:14.170Z,1.62
2019-03-19T14:12:41.656Z,1.92
2019-03-19T14:15:11.182Z,1.77
2019-03-19T14:17:39.065Z,1.40
2019-03-19T14:20:08.548Z,1.67
2019-03-19T14:22:36.027Z,1.52
2019-03-19T14:25:04.352Z,1.50
2019-03-19T14:27:31.833Z,1.72
2019-03-19T14:29:59.720Z,1.85
2019-03-19T14:32:27.360Z,1.90
2019-03-19T14:34:54.756Z,1.30
2019-03-19T14:37:22.290Z,1.52
2019-03-19T14:39:49.764Z,1.90
2019-03-19T14:42:19.500Z,1.45
2019-03-19T14:44:46.818Z,1.55
2019-03-19T14:47:14.255Z,1.70
2019-03-19T14:49:46.569Z,1.65
2019-03-19T14:52:11.247Z,1.72
2019-03-19T14:54:38.686Z,1.40
2019-03-19T14:57:06.266Z,2.05
2019-03-19T14:59:33.717Z,1.42
2019-03-19T15:02:01.237Z,1.80
2019-03-19T15:04:29.008Z,1.72
2019-03-19T15:06:56.450Z,1.98
2019-03-19T15:09:23.997Z,2.02
2019-03-19T15:11:51.501Z,1.75
2019-03-19T15:14:19.273Z,2.02
2019-03-19T15:16:47.044Z,1.82
2019-03-19T15:19:14.723Z,1.52
2019-03-19T15:21:42.183Z,1.62
2019-03-19T15:24:09.673Z,1.80
2019-03-19T15:26:37.206Z,1.95
2019-03-19T15:29:04.973Z,1.60
2019-03-19T15:31:32.431Z,1.92
2019-03-19T15:34:00.544Z,2.30
2019-03-19T15:36:28.023Z,1.80
2019-03-19T15:38:55.471Z,1.92
2019-03-19T15:41:28.243Z,1.65
2019-03-19T15:43:55.954Z,1.60
2019-03-19T15:46:23.393Z,1.40
2019-03-19T15:48:50.870Z,1.55
2019-03-19T15:51:18.367Z,1.70
2019-03-19T15:53:45.814Z,1.72
2019-03-19T15:56:13.265Z,1.90
2019-03-19T15:58:40.714Z,2.35
2019-03-19T16:01:08.550Z,2.02
2019-03-19T16:03:36.038Z,1.80
2019-03-19T16:06:03.565Z,2.35
2019-03-19T16:08:31.030Z,1.80
2019-03-19T16:10:58.545Z,2.05
2019-03-19T16:13:26.052Z,2.00
2019-03-19T16:15:53.571Z,1.52
2019-03-19T16:18:21.034Z,1.70
2019-03-19T16:20:48.473Z,1.75
2019-03-19T16:23:16.003Z,1.17
2019-03-19T16:25:43.433Z,1.50
2019-03-19T16:28:10.928Z,2.20
2019-03-19T16:30:38.454Z,2.05
2019-03-19T16:33:06.099Z,1.60
2019-03-19T16:35:33.565Z,1.40
2019-03-19T16:38:01.145Z,2.15
2019-03-19T16:40:48.057Z,1.47
2019-03-19T16:43:15.543Z,1.98
2019-03-19T16:45:43.043Z,4.25
2019-03-19T16:48:10.574Z,3.77
2019-03-19T16:50:38.091Z,1.90
2019-03-19T16:53:05.494Z,2.10
2019-03-19T16:55:33.003Z,2.70
2019-03-19T16:58:00.992Z,2.58
2019-03-19T17:00:28.511Z,2.77
2019-03-19T17:02:55.955Z,3.95
2019-03-19T17:05:23.456Z,2.67
2019-03-19T17:07:50.932Z,2.10
2019-03-19T17:10:18.498Z,1.62
2019-03-19T17:12:45.932Z,2.05
2019-03-19T17:15:14.315Z,1.80
2019-03-19T17:17:41.761Z,1.85
2019-03-19T17:20:10.379Z,2.02
2019-03-19T17:22:37.847Z,2.17
2019-03-19T17:25:06.555Z,1.82
2019-03-19T17:27:33.978Z,2.10
2019-03-19T17:30:01.438Z,1.75
2019-03-19T17:32:28.941Z,2.72
2019-03-19T17:34:56.436Z,2.40
2019-03-19T17:37:24.244Z,2.90
2019-03-19T17:39:51.808Z,2.50
2019-03-19T17:42:20.177Z,2.87
2019-03-19T17:44:47.612Z,2.77
2019-03-19T17:47:15.127Z,2.60
2019-03-19T17:49:42.664Z,2.93
2019-03-19T17:52:10.451Z,2.23
2019-03-19T17:54:37.896Z,3.00
2019-03-19T17:57:05.482Z,3.50
2019-03-19T17:59:33.524Z,3.37
2019-03-19T18:02:01.064Z,2.50
2019-03-19T18:04:30.051Z,2.20
2019-03-19T18:06:57.533Z,2.47
2019-03-19T18:09:25.371Z,2.00
2019-03-19T18:11:52.872Z,2.00
2019-03-19T18:14:20.695Z,2.70
2019-03-19T18:16:48.193Z,2.83
2019-03-19T18:19:15.721Z,2.03
2019-03-19T18:21:43.197Z,2.87
2019-03-19T18:24:11.350Z,3.00
2019-03-19T18:26:39.208Z,3.60
2019-03-19T18:29:06.677Z,4.70
2019-03-19T18:31:34.926Z,3.87
2019-03-19T18:34:10.212Z,4.50
2019-03-19T18:36:31.935Z,3.97
2019-03-19T18:39:00.362Z,4.83
2019-03-19T18:41:27.885Z,4.60
2019-03-19T18:43:56.094Z,4.57
2019-03-19T18:46:23.656Z,4.90
2019-03-19T18:48:57.321Z,3.77
2019-03-19T18:51:25.187Z,4.40
2019-03-19T18:53:53.025Z,4.80
2019-03-19T18:56:21.523Z,5.43
2019-03-19T18:59:08.527Z,4.63
2019-03-19T19:01:36.576Z,4.10
2019-03-19T19:04:04.854Z,4.40
2019-03-19T19:06:32.539Z,4.40
2019-03-19T19:09:00.451Z,4.33
2019-03-19T19:11:28.485Z,4.83
2019-03-19T19:13:56.771Z,4.03
2019-03-19T19:16:24.973Z,3.80
2019-03-19T19:18:53.257Z,3.47
2019-03-19T19:21:21.130Z,3.63
2019-03-19T19:23:49.000Z,4.00
2019-03-19T19:26:16.554Z,4.80
2019-03-19T19:28:44.872Z,4.03
2019-03-19T19:31:12.722Z,4.87
2019-03-19T19:33:40.187Z,4.33
2019-03-19T19:36:07.700Z,4.53
2019-03-19T19:38:35.939Z,4.97
2019-03-19T19:41:03.413Z,5.30
2019-03-19T19:43:31.274Z,7.27
2019-03-19T19:45:58.846Z,6.80
2019-03-19T19:48:26.734Z,7.30
2019-03-19T19:50:54.352Z,6.47
2019-03-19T19:53:21.758Z,4.80
2019-03-19T19:55:49.232Z,6.17
2019-03-19T19:58:16.787Z,6.63
2019-03-19T20:00:44.356Z,6.80
2019-03-19T20:03:12.835Z,7.20
2019-03-19T20:05:40.839Z,6.73
2019-03-19T20:08:27.759Z,6.37
2019-03-19T20:10:55.335Z,6.50
2019-03-19T20:13:22.775Z,6.43
2019-03-19T20:15:50.723Z,5.93
2019-03-19T20:18:18.202Z,5.60
2019-03-19T20:20:45.730Z,6.50
2019-03-19T20:23:13.514Z,6.30
2019-03-19T20:25:41.092Z,7.83
2019-03-19T20:28:08.617Z,6.83
2019-03-19T20:30:36.350Z,7.00
2019-03-19T20:33:04.090Z,7.60
2019-03-19T20:35:31.584Z,9.10
2019-03-19T20:37:59.103Z,7.97
2019-03-19T20:40:27.036Z,8.40
2019-03-19T20:42:55.298Z,7.87
2019-03-19T20:45:22.834Z,8.77
2019-03-19T20:47:50.436Z,7.53
2019-03-19T20:50:23.588Z,7.27
2019-03-19T20:52:51.077Z,7.07
2019-03-19T20:55:18.939Z,7.53
2019-03-19T20:57:46.445Z,6.97
2019-03-19T21:00:14.770Z,7.03
2019-03-19T21:02:42.276Z,7.27
2019-03-19T21:05:10.061Z,7.17
2019-03-19T21:07:37.534Z,7.97
2019-03-19T21:10:05.843Z,8.93
2019-03-19T21:12:33.292Z,8.47
2019-03-19T21:15:00.783Z,9.17
2019-03-19T21:17:28.286Z,8.70
2019-03-19T21:19:56.112Z,7.57
2019-03-19T21:22:43.058Z,8.07
2019-03-19T21:25:10.647Z,8.20
2019-03-19T21:27:38.165Z,8.27
2019-03-19T21:30:06.038Z,8.47
2019-03-19T21:32:33.634Z,7.80
2019-03-19T21:35:01.151Z,7.30
2019-03-19T21:37:28.925Z,5.83
2019-03-19T21:39:56.619Z,6.40
2019-03-19T21:42:24.148Z,5.80
2019-03-19T21:44:51.615Z,6.47
2019-03-19T21:47:20.215Z,6.83
2019-03-19T21:49:47.669Z,6.70
2019-03-19T21:52:15.170Z,8.10
2019-03-19T21:54:42.658Z,7.10
2019-03-19T21:57:10.205Z,7.80
2019-03-19T21:59:37.651Z,7.23
2019-03-19T22:02:05.245Z,7.90
2019-03-19T22:04:32.720Z,8.77
2019-03-19T22:07:00.235Z,8.03
2019-03-19T22:09:27.685Z,8.33
2019-03-19T22:11:55.204Z,8.63
2019-03-19T22:14:22.709Z,7.53
2019-03-19T22:16:50.205Z,7.03
2019-03-19T22:19:17.662Z,6.80
2019-03-19T22:21:45.391Z,7.20
2019-03-19T22:24:12.904Z,6.97
2019-03-19T22:26:40.343Z,6.80
2019-03-19T22:29:08.163Z,6.80
2019-03-19T22:31:35.628Z,6.40
2019-03-19T22:34:13.505Z,7.37
2019-03-19T22:36:32.765Z,6.53
2019-03-19T22:39:00.227Z,7.20
2019-03-19T22:41:28.124Z,7.33
2019-03-19T22:43:55.570Z,7.13
2019-03-19T22:46:23.010Z,7.07
2019-03-19T22:48:50.810Z,7.20
2019-03-19T22:51:18.596Z,6.50
2019-03-19T22:53:46.049Z,7.33
2019-03-19T22:56:13.792Z,6.67
2019-03-19T22:58:41.251Z,7.10
2019-03-19T23:01:09.139Z,6.50
2019-03-19T23:03:36.810Z,6.63
2019-03-19T23:06:04.343Z,7.23
2019-03-19T23:08:31.805Z,6.70
2019-03-19T23:10:59.285Z,7.27
2019-03-19T23:13:26.782Z,6.97
2019-03-19T23:15:54.545Z,7.07
2019-03-19T23:18:22.284Z,7.60
2019-03-19T23:20:49.794Z,6.17
2019-03-19T23:23:17.291Z,6.03
2019-03-19T23:25:44.858Z,6.63
2019-03-19T23:28:12.313Z,5.73
2019-03-19T23:30:39.778Z,6.80
2019-03-19T23:33:07.304Z,7.67
2019-03-19T23:35:35.801Z,5.63
2019-03-19T23:38:03.355Z,6.77
2019-03-19T23:40:30.844Z,6.97
2019-03-19T23:42:58.410Z,7.13
2019-03-19T23:45:26.160Z,6.40
2019-03-19T23:47:53.694Z,6.63
2019-03-19T23:50:21.152Z,6.50
2019-03-19T23:52:48.659Z,6.87
2019-03-19T23:55:16.314Z,7.23
2019-03-19T23:57:43.859Z,7.07
